Rainier, Washington
Current Conditions -  °F | °C
As of 4:54 AM on Thursday 23 Oct 2014 (Local Time) from KOLM Reporting Station
Light Rain Light Rain  
Wind Chill: 52°   Ceiling: 5500
Heat Index: 52°   Visibility: 4mi
Dew Point: 50°   Wind: 6mph
Humidity: 93%   Direction: 240°WSW
Pressure: 29.72"   Gusts: NA
Location:  46.89°N, 122.69°W
Report Text: KOLM 231154Z AUTO 24005KT 4SM -RA BR BKN055 OVC070 11/10 A2972 RMK AO2 SLP065 P0007 60038 70153 T01110100 10122 20111 55005 $
Loading
Personal Weather Stations






























Interactive Weather Map
Tropical Storm Tracking
New forecast layout! Learn more

10-Day Weather Forecast

Advertisements
Track Severe Weather on mobile